Latest Weather Observations for Perth

IDW60801

Issued at 2:32 pm WST Friday 27 May 2016 (issued every 30 minutes, with the page automatically refreshed every 10 minutes)

About weather observations | Map of weather stations | Latest weather observations for WA | Other Formats
Station Details ID: 009225 Name: PERTH METRO Lat: -31.92 Lon: 115.87 Height: 24.9 m
Data from the previous 72 hours. | See also: Recent months at Perth
Date/Time
WST
Temp
°C
App
Temp
°C
Dew
Point
Rel
Hum
%
Delta-T
°C
Wind Press
QNH
hPa
Press
MSL
hPa
Rain
since 9 am
mm
Dir
 
Spd
km/h
Gust
km/h
Spd
kts
Gust
kts
27/02:30pm 20.3 17.5 7.0 42 6.7 N 11 19 6 10 1018.6 1018.5 0.0
27/02:00pm 20.2 17.2 7.9 45 6.3 N 13 22 7 12 1019.1 1019.0 0.0
27/01:30pm 20.3 18.2 8.3 46 6.3 N 9 20 5 11 1019.6 1019.5 0.0
27/01:00pm 19.2 16.3 6.3 43 6.4 NE 11 22 6 12 1020.1 1020.0 0.0
27/12:30pm 19.9 17.3 7.6 45 6.3 NNE 11 17 6 9 1020.6 1020.5 0.0
27/12:00pm 18.9 16.2 8.8 52 5.2 NNE 13 19 7 10 1021.1 1021.0 0.0
27/11:30am 19.1 16.9 9.3 53 5.2 NNE 11 19 6 10 1021.8 1021.7 0.0
27/11:00am 18.2 16.1 9.8 58 4.4 NE 11 19 6 10 1022.3 1022.2 0.0
27/10:30am 16.3 14.8 10.4 68 3.1 NE 9 15 5 8 1022.8 1022.7 0.0
27/10:00am 14.6 12.4 9.2 70 2.8 NE 11 19 6 10 1023.0 1022.9 0.0
27/09:30am 13.8 11.8 8.8 72 2.5 NE 9 13 5 7 1023.1 1023.0 0.0
27/09:00am 12.5 11.1 9.0 79 1.8 NE 6 11 3 6 1023.0 1022.9 0.4
27/08:30am 10.7 9.2 9.0 89 0.8 ENE 7 11 4 6 1022.8 1022.7 0.4
27/08:00am 8.7 7.1 8.1 96 0.3 SSW 6 11 3 6 1023.0 1022.9 0.4
27/07:30am 7.5 5.7 7.1 97 0.2 SSW 6 7 3 4 1022.9 1022.8 0.4
27/07:00am 7.3 5.4 6.9 97 0.2 SSW 6 7 3 4 1022.8 1022.7 0.4
27/06:30am 7.6 7.0 7.2 97 0.2 CALM 0 0 0 0 1022.5 1022.4 0.4
27/06:00am 7.9 5.6 7.5 97 0.2 SSW 9 11 5 6 1022.1 1022.0 0.4
27/05:30am 8.1 6.5 7.8 98 0.1 SSW 6 9 3 5 1022.4 1022.3 0.4
27/05:00am 8.6 7.8 8.3 98 0.1 SSW 2 6 1 3 1022.3 1022.2 0.4
27/04:30am 8.1 7.2 7.8 98 0.1 SSW 2 7 1 4 1022.4 1022.3 0.4
27/04:00am 7.6 7.0 7.3 98 0.1 CALM 0 0 0 0 1022.4 1022.3 0.4
27/03:30am 7.0 6.2 6.7 98 0.1 CALM 0 0 0 0 1022.6 1022.5 0.4
27/03:00am 7.2 6.5 6.9 98 0.1 CALM 0 0 0 0 1022.7 1022.6 0.4
27/02:30am 7.5 6.8 7.1 97 0.2 CALM 0 0 0 0 1022.7 1022.6 0.4
27/02:00am 7.5 6.8 7.1 97 0.2 CALM 0 0 0 0 1022.6 1022.5 0.4
27/01:30am 7.8 7.2 7.4 97 0.2 CALM 0 0 0 0 1022.9 1022.8 0.4
27/01:00am 7.9 7.3 7.3 96 0.3 CALM 0 0 0 0 1022.7 1022.6 0.4
27/12:30am 8.5 8.0 7.9 96 0.3 CALM 0 0 0 0 1022.7 1022.6 0.4
27/12:00am 8.9 8.1 8.3 96 0.3 SSW 2 6 1 3 1022.9 1022.8 0.4
 
Date/Time
WST
Temp
°C
App
Temp
°C
Dew
Point
Rel
Hum
%
Delta-T
°C
Wind Press
QNH
hPa
Press
MSL
hPa
Rain
since 9 am
mm
Dir
 
Spd
km/h
Gust
km/h
Spd
kts
Gust
kts
26/11:30pm 8.8 8.4 8.2 96 0.3 CALM 0 0 0 0 1022.9 1022.8 0.4
26/11:00pm 9.2 8.9 8.6 96 0.3 CALM 0 0 0 0 1023.2 1023.1 0.4
26/10:30pm 9.2 8.8 8.4 95 0.4 CALM 0 0 0 0 1023.2 1023.1 0.4
26/10:00pm 9.4 9.1 8.5 94 0.4 CALM 0 0 0 0 1023.0 1022.9 0.4
26/09:30pm 9.7 9.4 8.5 92 0.6 CALM 0 0 0 0 1022.8 1022.7 0.4
26/09:00pm 10.1 9.9 8.9 92 0.6 CALM 0 0 0 0 1022.7 1022.6 0.4
26/08:30pm 10.4 10.1 8.8 90 0.8 CALM 0 0 0 0 1022.5 1022.4 0.4
26/08:00pm 11.2 11.1 9.3 88 0.9 CALM 0 0 0 0 1022.2 1022.1 0.4
26/07:30pm 11.7 11.6 9.4 86 1.2 CALM 0 0 0 0 1022.1 1022.0 0.4
26/07:00pm 12.5 12.4 9.3 81 1.6 CALM 0 0 0 0 1021.8 1021.7 0.4
26/06:30pm 13.6 13.6 9.8 78 2.0 CALM 0 0 0 0 1021.3 1021.2 0.4
26/06:00pm 15.0 14.5 9.4 69 2.9 SSW 2 7 1 4 1020.8 1020.7 0.4
26/05:30pm 16.2 14.8 8.9 62 3.8 SSW 6 13 3 7 1020.8 1020.7 0.4
26/05:00pm 16.7 15.3 9.6 63 3.7 SW 7 13 4 7 1020.3 1020.2 0.4
26/04:30pm 17.2 15.9 9.9 62 3.8 SW 7 13 4 7 1020.2 1020.1 0.4
26/04:00pm 17.7 15.6 9.6 59 4.2 SSW 11 20 6 11 1019.7 1019.6 0.4
26/03:30pm 18.0 15.9 9.6 58 4.4 SW 11 19 6 10 1019.6 1019.5 0.4
26/03:00pm 18.3 16.2 11.1 63 3.9 SW 13 20 7 11 1019.4 1019.3 0.4
26/02:30pm 18.6 16.2 9.9 57 4.6 WSW 13 20 7 11 1019.0 1018.9 0.4
26/02:00pm 17.9 15.9 10.0 60 4.2 SSW 11 19 6 10 1019.0 1018.9 0.4
26/01:30pm 17.8 15.1 10.2 61 4.0 SW 15 24 8 13 1019.1 1019.0 0.4
26/01:00pm 17.8 15.4 11.4 66 3.5 SSW 15 24 8 13 1019.0 1018.9 0.4
26/12:30pm 17.8 15.1 11.6 67 3.4 SW 17 33 9 18 1019.0 1018.9 0.4
26/12:00pm 18.9 16.6 11.9 64 3.9 SW 15 26 8 14 1018.8 1018.7 0.0
26/11:30am 19.0 17.0 11.6 62 4.1 SW 13 22 7 12 1018.5 1018.4 0.0
26/11:00am 18.8 16.4 11.4 62 4.0 SW 15 28 8 15 1018.7 1018.6 0.0
26/10:30am 19.3 18.1 11.6 61 4.2 W 9 20 5 11 1018.4 1018.3 0.0
26/10:00am 17.8 16.7 11.8 68 3.3 WSW 9 13 5 7 1017.9 1017.8 0.0
26/09:30am 17.5 16.4 12.0 70 3.0 SW 9 13 5 7 1018.1 1018.0 0.0
26/09:00am 16.9 17.5 11.8 72 2.8 CALM 0 0 0 0 1017.4 1017.3 2.2
26/08:30am 16.4 17.2 12.4 77 2.2 CALM 0 0 0 0 1017.2 1017.1 2.2
26/08:00am 15.6 15.1 12.0 79 2.0 SSW 6 13 3 7 1016.4 1016.3 2.2
26/07:30am 16.2 15.2 10.9 71 2.8 WSW 7 13 4 7 1016.1 1016.0 2.0
26/07:00am 15.8 14.5 10.1 69 3.0 WSW 7 13 4 7 1015.3 1015.2 2.0
26/06:30am 16.0 14.1 9.2 64 3.5 WSW 9 19 5 10 1015.1 1015.0 2.0
26/06:00am 16.2 14.2 10.1 67 3.2 WSW 11 17 6 9 1014.9 1014.8 2.0
26/05:30am 16.3 14.3 10.2 67 3.2 WSW 11 20 6 11 1014.1 1014.0 2.0
26/05:00am 16.4 14.6 10.9 70 2.9 WSW 11 19 6 10 1014.6 1014.5 2.0
26/04:30am 16.0 14.2 11.0 72 2.7 WSW 11 20 6 11 1014.0 1013.9 2.0
26/04:00am 15.7 13.7 11.5 76 2.3 W 13 22 7 12 1013.9 1013.8 2.0
26/03:30am 15.0 13.6 13.4 90 0.9 W 13 19 7 10 1013.7 1013.6 2.0
26/03:00am 13.1 13.6 12.8 98 0.2 NNE 2 6 1 3 1013.6 1013.5 2.0
26/02:30am 13.3 12.9 13.0 98 0.2 NNE 7 11 4 6 1013.5 1013.4 2.0
26/02:00am 13.2 13.7 12.7 97 0.3 W 2 7 1 4 1013.3 1013.2 2.0
26/01:30am 13.3 14.1 12.7 96 0.3 CALM 0 0 0 0 1013.1 1013.0 1.8
26/01:00am 13.3 14.1 12.5 95 0.4 CALM 0 0 0 0 1012.6 1012.5 1.2
26/12:30am 13.5 13.0 12.7 95 0.4 NW 7 19 4 10 1013.3 1013.2 1.2
26/12:00am 13.2 12.7 12.6 96 0.3 NNW 7 13 4 7 1012.9 1012.8 1.0
 
Date/Time
WST
Temp
°C
App
Temp
°C
Dew
Point
Rel
Hum
%
Delta-T
°C
Wind Press
QNH
hPa
Press
MSL
hPa
Rain
since 9 am
mm
Dir
 
Spd
km/h
Gust
km/h
Spd
kts
Gust
kts
25/11:30pm 13.0 12.0 12.4 96 0.3 NNE 9 15 5 8 1013.2 1013.1 0.6
25/11:00pm 13.1 12.1 12.3 95 0.4 N 9 13 5 7 1013.5 1013.4 0.6
25/10:30pm 13.3 12.9 12.4 94 0.5 NNW 6 9 3 5 1013.6 1013.5 0.6
25/10:00pm 13.5 12.9 12.4 93 0.6 NNW 7 9 4 5 1012.9 1012.8 0.6
25/09:30pm 13.5 13.0 12.1 91 0.8 NNW 6 7 3 4 1013.4 1013.3 0.6
25/09:00pm 13.8 13.2 11.8 88 1.1 NNW 6 7 3 4 1013.4 1013.3 0.6
25/08:30pm 14.3 13.7 11.8 85 1.3 NNW 6 9 3 5 1013.7 1013.6 0.6
25/08:00pm 13.8 13.2 12.2 90 0.9 NW 7 15 4 8 1013.5 1013.4 0.6
25/07:30pm 13.4 13.9 11.6 89 1.0 CALM 0 0 0 0 1013.5 1013.4 0.6
25/07:00pm 14.5 15.0 11.5 82 1.6 CALM 0 6 0 3 1013.3 1013.2 0.6
25/06:30pm 14.7 13.7 12.4 86 1.3 WNW 9 17 5 9 1013.3 1013.2 0.6
25/06:00pm 15.3 14.8 12.1 81 1.7 W 6 13 3 7 1012.7 1012.6 0.2
25/05:30pm 15.5 15.8 12.3 81 1.8 W 2 13 1 7 1012.3 1012.2 0.0
25/05:00pm 15.8 13.8 11.6 76 2.3 W 13 20 7 11 1012.1 1012.1 0.0
25/04:30pm 17.2 15.2 10.1 63 3.8 W 11 20 6 11 1012.0 1012.0 0.0
25/04:00pm 17.8 16.1 9.9 60 4.2 WNW 9 20 5 11 1011.7 1011.7 0.0
25/03:30pm 18.7 16.7 10.3 58 4.5 WNW 11 20 6 11 1011.6 1011.6 0.0
25/03:00pm 18.3 16.6 9.9 58 4.5 W 9 20 5 11 1011.6 1011.6 0.0
25/02:30pm 18.0 15.4 9.4 57 4.5 WNW 13 22 7 12 1011.5 1011.5 0.0
25/02:00pm 18.1 15.6 9.7 58 4.4 W 13 24 7 13 1011.5 1011.5 0.0
25/01:30pm 18.7 16.4 10.5 59 4.4 WNW 13 22 7 12 1011.4 1011.4 0.0
25/01:00pm 18.2 16.1 9.8 58 4.5 W 11 19 6 10 1011.4 1011.4 0.0
25/12:30pm 18.1 15.6 9.7 58 4.4 W 13 20 7 11 1011.5 1011.5 0.0
25/12:00pm 18.0 16.2 10.9 63 3.8 W 11 20 6 11 1011.7 1011.7 0.0
25/11:30am 18.5 16.6 10.6 60 4.3 W 11 17 6 9 1011.9 1011.9 0.0
25/11:00am 18.1 17.3 11.2 64 3.8 NNE 6 11 3 6 1012.0 1012.0 0.0
25/10:30am 16.9 16.2 13.2 79 2.1 NNE 9 13 5 7 1012.1 1012.1 0.0
25/10:00am 15.2 15.5 12.2 82 1.6 N 2 6 1 3 1012.4 1012.3 0.0
25/09:30am 14.6 13.5 11.9 84 1.5 NE 9 11 5 6 1012.5 1012.4 0.0
25/09:00am 13.0 12.2 11.7 92 0.7 NNE 7 15 4 8 1012.5 1012.4 2.6
25/08:30am 12.6 11.5 11.8 95 0.4 NW 9 13 5 7 1012.1 1012.1 2.6
25/08:00am 11.6 10.9 11.3 98 0.2 NW 6 9 3 5 1011.9 1011.9 2.6
25/07:30am 11.0 10.9 10.7 98 0.2 NW 2 7 1 4 1011.9 1011.9 2.6
25/07:00am 10.6 9.6 10.3 98 0.2 NW 6 9 3 5 1011.5 1011.5 2.6
25/06:30am 10.3 9.0 10.1 99 0.1 NW 7 11 4 6 1011.2 1011.2 2.6
25/06:00am 10.3 10.4 10.0 98 0.2 CALM 0 6 0 3 1011.0 1011.0 2.6
25/05:30am 10.4 10.1 10.1 98 0.2 NW 2 7 1 4 1010.7 1010.7 2.6
25/05:00am 10.8 11.0 10.5 98 0.2 CALM 0 0 0 0 1010.8 1010.8 2.6
25/04:30am 11.2 11.5 10.9 98 0.2 CALM 0 6 0 3 1010.6 1010.6 2.6
25/04:00am 11.5 10.7 11.2 98 0.2 NW 6 11 3 6 1010.6 1010.6 2.6
25/03:30am 11.6 10.9 11.3 98 0.2 NW 6 9 3 5 1010.7 1010.7 2.6
25/03:00am 11.5 11.1 11.2 98 0.2 NW 4 7 2 4 1010.7 1010.7 2.6
25/02:30am 11.5 10.7 11.2 98 0.2 NW 6 9 3 5 1010.8 1010.8 2.6
25/02:00am 11.5 11.5 11.2 98 0.2 WSW 2 7 1 4 1010.8 1010.8 2.4
25/01:30am 11.4 11.8 11.1 98 0.2 CALM 0 0 0 0 1010.8 1010.8 2.4
25/01:00am 11.8 12.2 11.3 97 0.3 CALM 0 0 0 0 1010.8 1010.8 2.4
25/12:30am 12.4 12.7 12.1 98 0.2 WSW 2 7 1 4 1011.0 1011.0 2.4
25/12:00am 12.4 12.7 12.1 98 0.2 NNW 2 7 1 4 1011.1 1011.1 2.0
 
Date/Time
WST
Temp
°C
App
Temp
°C
Dew
Point
Rel
Hum
%
Delta-T
°C
Wind Press
QNH
hPa
Press
MSL
hPa
Rain
since 9 am
mm
Dir
 
Spd
km/h
Gust
km/h
Spd
kts
Gust
kts
24/11:30pm 12.2 12.7 11.7 97 0.3 CALM 0 0 0 0 1010.7 1010.7 1.4
24/11:00pm 12.6 13.2 12.0 96 0.3 CALM 0 6 0 3 1010.8 1010.8 1.4
24/10:30pm 12.9 12.5 12.4 97 0.3 NW 6 9 3 5 1011.0 1011.0 1.4
24/10:00pm 12.9 13.7 12.4 97 0.3 CALM 0 0 0 0 1011.2 1011.2 1.2
24/09:30pm 12.7 13.4 12.1 96 0.3 CALM 0 0 0 0 1010.9 1010.9 1.2
24/09:00pm 12.9 13.6 12.1 95 0.4 CALM 0 0 0 0 1010.9 1010.9 1.2
24/08:30pm 13.4 13.4 12.3 93 0.6 NW 4 7 2 4 1011.0 1011.0 1.2
24/08:00pm 13.7 13.3 12.3 91 0.8 NW 6 13 3 7 1011.0 1011.0 1.0
24/07:30pm 13.9 13.1 11.8 87 1.1 NW 7 13 4 7 1010.9 1010.9 0.4
24/07:00pm 14.4 13.2 11.6 83 1.5 W 9 17 5 9 1010.6 1010.6 0.4
24/06:30pm 14.3 14.6 10.9 80 1.8 CALM 0 0 0 0 1010.1 1010.1 0.0
24/06:00pm 14.6 14.1 10.6 77 2.1 SW 4 7 2 4 1009.7 1009.7 0.0
24/05:30pm 15.6 13.8 10.8 73 2.6 SW 11 20 6 11 1009.4 1009.4 0.0
24/05:00pm 16.5 14.5 8.7 60 4.0 WSW 9 15 5 8 1009.0 1009.0 0.0
24/04:30pm 16.7 14.2 9.6 63 3.7 WSW 13 20 7 11 1008.9 1008.9 0.0
24/04:00pm 16.6 13.9 10.5 67 3.2 WSW 15 30 8 16 1008.8 1008.8 0.0
24/03:30pm 17.1 14.4 10.5 65 3.5 SW 15 28 8 15 1008.4 1008.4 0.0
24/03:00pm 16.6 14.1 10.9 69 3.1 S 15 22 8 12 1008.1 1008.1 0.0

Other Formats:

Comma delimited format used in spreadsheet applications
http://www.bom.gov.au/fwo/IDW60801/IDW60801.94608.axf

JavaScript Object Notation format (JSON) in row-major order
http://www.bom.gov.au/fwo/IDW60801/IDW60801.94608.json